Time;durP1;ratioP1;P1;durP2;ratioP2;P2;SDS_P1;SDS_P2;PMS_P1;PMS_P2;Temp;Humidity;BMP_temperature;BMP_pressure;BME280_temperature;BME280_humidity;BME280_pressure;Samples;Min_cycle;Max_cycle;Signal;HPM_P1;HPM_P2
2021/06/22 00:01:08;;;;;;;24.40;5.68;;;;;;;24.71;55.02;99849.34;5054310;28;20055;-81
2021/06/22 00:04:12;;;;;;;26.20;5.43;;;;;;;24.65;55.25;99859.38;5053995;28;20491;-81
2021/06/22 00:07:19;;;;;;;25.33;5.65;;;;;;;24.53;55.37;99858.53;5053673;28;20424;-80
2021/06/22 00:10:26;;;;;;;27.52;6.30;;;;;;;24.55;55.86;99856.38;5054197;28;20047;-81
2021/06/22 00:13:31;;;;;;;20.52;5.90;;;;;;;24.58;55.32;99858.66;5041799;28;20052;-80
2021/06/22 00:16:35;;;;;;;21.95;5.07;;;;;;;24.55;55.65;99851.72;5054073;28;20488;-80
2021/06/22 00:19:40;;;;;;;22.23;6.45;;;;;;;24.52;55.87;99852.19;5054028;28;20055;-80
2021/06/22 00:22:44;;;;;;;23.90;5.78;;;;;;;24.62;55.34;99854.34;5054266;28;20076;-80
2021/06/22 00:25:49;;;;;;;23.77;6.15;;;;;;;24.61;56.14;99857.34;5076254;28;20388;-80
2021/06/22 00:28:53;;;;;;;24.73;5.68;;;;;;;24.39;56.65;99849.66;5053778;28;20052;-80
2021/06/22 00:31:58;;;;;;;28.55;5.90;;;;;;;24.47;56.51;99862.19;5052761;28;20056;-81
2021/06/22 00:35:03;;;;;;;27.02;5.32;;;;;;;24.44;56.21;99860.75;5053795;28;20396;-80
2021/06/22 00:38:08;;;;;;;22.00;5.10;;;;;;;24.42;56.86;99856.59;5053869;28;20052;-80
2021/06/22 00:41:12;;;;;;;19.77;6.00;;;;;;;24.44;56.61;99855.28;5053781;28;20124;-80
2021/06/22 00:44:18;;;;;;;24.33;5.18;;;;;;;24.44;56.45;99854.47;5064374;28;20056;-81
2021/06/22 00:47:22;;;;;;;18.42;4.70;;;;;;;24.35;57.29;99859.44;5053500;28;20044;-81
2021/06/22 00:50:31;;;;;;;19.08;5.05;;;;;;;24.30;57.09;99858.47;5053687;28;20040;-80
2021/06/22 00:53:38;;;;;;;20.90;4.65;;;;;;;24.36;57.32;99860.28;5053581;28;20044;-81
2021/06/22 00:56:42;;;;;;;22.08;5.32;;;;;;;24.22;58.28;99850.59;5053681;28;20044;-81
2021/06/22 00:59:48;;;;;;;25.23;5.88;;;;;;;23.94;57.43;99853.94;5053621;28;20502;-80
2021/06/22 01:02:54;;;;;;;25.40;6.30;;;;;;;23.43;56.42;99857.16;5053840;28;20051;-81
2021/06/22 01:06:00;;;;;;;26.75;5.75;;;;;;;23.15;55.60;99844.00;5058444;28;20403;-81
2021/06/22 01:09:05;;;;;;;29.83;5.30;;;;;;;22.85;55.61;99848.53;5073310;28;20502;-81
2021/06/22 01:12:12;;;;;;;24.33;4.78;;;;;;;22.87;55.77;99840.94;5073065;28;20047;-80
2021/06/22 01:15:26;;;;;;;22.95;5.20;;;;;;;22.85;55.46;99853.16;5053154;28;20071;-81
2021/06/22 01:18:30;;;;;;;21.45;4.80;;;;;;;22.90;55.55;99842.38;5053748;28;20056;-80
2021/06/22 01:22:07;;;;;;;25.35;6.10;;;;;;;22.96;55.89;99847.78;5071544;28;20135;-80
2021/06/22 01:25:32;;;;;;;22.38;6.65;;;;;;;22.80;55.20;99845.63;5060041;28;20056;-80
2021/06/22 01:28:36;;;;;;;20.25;4.63;;;;;;;22.81;55.23;99847.31;5059767;28;20144;-80
2021/06/22 01:31:55;;;;;;;19.67;5.22;;;;;;;22.77;54.98;99857.03;5071206;28;20051;-80
2021/06/22 01:35:03;;;;;;;28.35;5.20;;;;;;;22.36;55.31;99838.44;5059758;28;20072;-80
2021/06/22 01:38:09;;;;;;;25.98;5.32;;;;;;;22.21;55.49;99845.28;5048606;28;20419;-81
2021/06/22 01:41:18;;;;;;;26.65;4.70;;;;;;;22.14;55.21;99836.31;5074633;28;20047;-80
2021/06/22 01:44:27;;;;;;;18.73;4.55;;;;;;;22.21;55.39;99843.41;5062953;28;20051;-81
2021/06/22 01:47:31;;;;;;;31.45;5.82;;;;;;;22.18;54.47;99851.19;5074461;28;20139;-81
2021/06/22 01:50:38;;;;;;;30.45;5.40;;;;;;;22.12;54.68;99854.84;5063474;28;20043;-81
2021/06/22 01:53:57;;;;;;;22.83;5.40;;;;;;;21.91;55.01;99854.13;5063102;28;20163;-79
2021/06/22 01:56:51;;;;;;;25.52;5.07;;;;;;;21.83;54.94;99848.88;5072941;28;20056;-81
2021/06/22 02:00:00;;;;;;;15.80;4.70;;;;;;;21.61;55.41;99849.41;5056560;28;20044;-79
2021/06/22 02:03:26;;;;;;;17.30;4.55;;;;;;;21.53;55.32;99846.97;5056520;28;20392;-79
2021/06/22 02:06:31;;;;;;;16.02;3.83;;;;;;;21.67;55.26;99856.75;5056462;28;20060;-80
2021/06/22 02:09:54;;;;;;;15.55;4.00;;;;;;;21.54;55.23;99854.94;5056427;28;20384;-80
2021/06/22 02:13:15;;;;;;;17.75;4.47;;;;;;;21.77;55.38;99857.13;5055557;28;20499;-81
2021/06/22 02:16:35;;;;;;;10.50;3.63;;;;;;;21.89;55.25;99844.47;5044023;28;20052;-80
2021/06/22 02:19:44;;;;;;;19.80;4.25;;;;;;;21.72;55.46;99835.94;5055711;28;20047;-81
2021/06/22 02:23:00;;;;;;;17.65;4.45;;;;;;;21.60;55.98;99847.75;5056103;28;20047;-80
2021/06/22 02:26:06;;;;;;;19.65;4.35;;;;;;;21.51;55.77;99843.59;5055289;28;20052;-80
2021/06/22 02:29:11;;;;;;;19.17;3.83;;;;;;;21.22;56.31;99850.44;5055186;28;20491;-80
2021/06/22 02:32:15;;;;;;;20.40;4.32;;;;;;;20.84;56.18;99841.28;5064105;28;20056;-79
2021/06/22 02:35:21;;;;;;;16.35;4.45;;;;;;;20.75;56.41;99849.69;5074899;28;20055;-80
2021/06/22 02:38:11;;;;;;;17.90;3.88;;;;;;;20.67;56.17;99851.78;5081308;28;20071;-80
2021/06/22 02:41:20;;;;;;;16.85;4.00;;;;;;;20.61;56.22;99849.94;5074938;28;20048;-80
2021/06/22 02:44:30;;;;;;;14.32;3.40;;;;;;;20.76;55.89;99854.09;5074904;28;20051;-80
2021/06/22 02:47:19;;;;;;;14.07;3.60;;;;;;;20.95;55.29;99846.06;5081716;28;20384;-80
2021/06/22 02:50:24;;;;;;;21.20;4.13;;;;;;;21.05;54.80;99852.81;5075678;28;20483;-80
2021/06/22 02:53:30;;;;;;;18.52;4.47;;;;;;;21.08;54.69;99841.47;5074327;28;20426;-80
2021/06/22 02:56:37;;;;;;;14.48;3.38;;;;;;;21.14;54.47;99847.94;5075472;28;20060;-81
2021/06/22 02:59:44;;;;;;;17.88;3.58;;;;;;;20.99;54.43;99856.34;5075166;28;20039;-80
2021/06/22 03:02:50;;;;;;;12.52;3.20;;;;;;;20.85;54.83;99851.97;5075086;28;20064;-81
2021/06/22 03:05:56;;;;;;;15.73;3.35;;;;;;;20.68;55.32;99840.69;5063035;28;20055;-82
2021/06/22 03:09:08;;;;;;;12.52;3.28;;;;;;;20.64;55.64;99849.50;5074526;28;20051;-80
2021/06/22 03:12:17;;;;;;;19.27;3.88;;;;;;;20.68;55.48;99856.22;5074059;28;20055;-80
2021/06/22 03:15:44;;;;;;;13.13;3.67;;;;;;;20.72;55.27;99863.75;5073404;28;20514;-80
2021/06/22 03:18:49;;;;;;;18.17;4.68;;;;;;;20.61;55.33;99863.56;5062866;28;20387;-80
2021/06/22 03:21:55;;;;;;;19.80;3.85;;;;;;;20.60;55.25;99853.69;5074154;28;20048;-80
2021/06/22 03:24:59;;;;;;;15.93;3.33;;;;;;;20.54;55.79;99866.28;5074360;28;20104;-80
2021/06/22 03:28:06;;;;;;;16.15;3.25;;;;;;;20.42;56.07;99867.13;5074089;28;20052;-80
2021/06/22 03:31:22;;;;;;;19.80;3.40;;;;;;;20.46;56.07;99855.59;5074795;28;20522;-82
2021/06/22 03:34:27;;;;;;;15.40;3.53;;;;;;;20.53;55.71;99861.03;5074642;28;20055;-81
2021/06/22 03:37:31;;;;;;;19.48;4.32;;;;;;;20.62;55.82;99871.53;5074656;28;20044;-81
2021/06/22 03:40:36;;;;;;;23.67;3.97;;;;;;;20.59;55.54;99866.47;5074789;28;20407;-81
2021/06/22 03:43:41;;;;;;;28.98;4.88;;;;;;;20.59;55.37;99868.41;5074584;28;20051;-80
2021/06/22 03:46:46;;;;;;;23.77;4.05;;;;;;;20.57;55.81;99871.31;5073460;28;20055;-81
2021/06/22 03:49:50;;;;;;;20.15;3.90;;;;;;;20.79;55.35;99877.38;5074768;28;20521;-80
2021/06/22 03:52:56;;;;;;;20.27;4.57;;;;;;;21.04;55.10;99872.91;5073443;28;20047;-82
2021/06/22 03:56:08;;;;;;;25.75;4.30;;;;;;;21.24;54.42;99868.28;5074367;28;20063;-81
2021/06/22 03:59:31;;;;;;;15.02;3.40;;;;;;;21.61;54.30;99887.66;5074315;28;20055;-80
2021/06/22 04:02:36;;;;;;;13.23;3.38;;;;;;;21.80;53.21;99886.75;5073860;28;20043;-80
2021/06/22 04:05:40;;;;;;;21.05;3.17;;;;;;;22.08;52.46;99889.97;5073072;28;20051;-80
2021/06/22 04:08:59;;;;;;;12.73;3.13;;;;;;;22.23;51.39;99895.13;5073358;28;20048;-81
2021/06/22 04:12:04;;;;;;;18.70;4.07;;;;;;;22.03;51.46;99895.25;5074153;28;20384;-80
2021/06/22 04:15:12;;;;;;;15.70;3.10;;;;;;;22.04;51.36;99902.41;5074004;28;20052;-80
2021/06/22 04:18:16;;;;;;;11.50;3.40;;;;;;;22.03;51.62;99898.81;5074105;28;20055;-80
2021/06/22 04:21:21;;;;;;;16.42;3.22;;;;;;;22.14;51.64;99905.50;5073253;28;20056;-80
2021/06/22 04:24:28;;;;;;;14.98;3.65;;;;;;;22.27;51.05;99910.84;5073462;28;20051;-80
2021/06/22 04:27:35;;;;;;;17.08;3.35;;;;;;;22.26;51.13;99911.94;5073257;28;20051;-81
2021/06/22 04:30:40;;;;;;;17.38;3.40;;;;;;;22.51;50.78;99914.69;5073590;28;20526;-80
2021/06/22 04:33:45;;;;;;;13.90;3.50;;;;;;;22.80;49.79;99915.94;5073204;28;20408;-81
2021/06/22 04:36:49;;;;;;;13.63;2.92;;;;;;;23.13;49.72;99921.97;5073595;28;20048;-79
2021/06/22 04:39:54;;;;;;;16.85;4.03;;;;;;;23.50;48.35;99928.31;5073906;28;20052;-81
2021/06/22 04:43:00;;;;;;;18.15;4.10;;;;;;;24.09;47.18;99922.09;5059897;28;20533;-80
2021/06/22 04:46:04;;;;;;;11.95;3.33;;;;;;;24.78;45.73;99921.47;5067510;28;20052;-81
2021/06/22 04:49:09;;;;;;;17.38;3.63;;;;;;;25.59;44.24;99932.44;5053993;28;20048;-81
2021/06/22 04:52:13;;;;;;;13.75;2.80;;;;;;;26.04;43.35;99933.41;5053701;28;20056;-80
2021/06/22 04:55:23;;;;;;;18.35;3.75;;;;;;;26.62;41.83;99941.38;5065404;28;20063;-81
2021/06/22 04:58:29;;;;;;;36.95;23.70;;;;;;;26.67;42.15;99943.38;5073501;28;20059;-80
2021/06/22 05:01:33;;;;;;;116.15;101.00;;;;;;;26.48;42.28;99937.28;5073618;28;20044;-81
2021/06/22 05:04:37;;;;;;;21.45;7.60;;;;;;;26.85;42.52;99952.28;5072542;28;20395;-82
2021/06/22 05:07:43;;;;;;;23.13;3.72;;;;;;;27.48;40.84;99954.66;5073577;28;20059;-81
2021/06/22 05:10:47;;;;;;;20.98;3.67;;;;;;;28.01;39.87;99955.94;5073831;28;20059;-80
2021/06/22 05:13:52;;;;;;;13.68;3.60;;;;;;;28.10;39.88;99960.72;5073509;28;20055;-82
2021/06/22 05:16:56;;;;;;;16.27;3.83;;;;;;;28.62;39.24;99963.81;5075658;28;20051;-80
2021/06/22 05:20:01;;;;;;;16.98;3.72;;;;;;;29.89;36.91;99957.28;5057544;28;20372;-79
2021/06/22 05:23:08;;;;;;;11.75;3.67;;;;;;;30.68;36.72;99964.19;5057224;28;20064;-80
2021/06/22 05:26:12;;;;;;;15.40;3.42;;;;;;;32.03;34.46;99978.19;5057194;28;20052;-82
2021/06/22 05:29:16;;;;;;;8.30;2.97;;;;;;;33.20;33.35;99968.00;5073577;28;20044;-81
2021/06/22 05:32:21;;;;;;;12.15;3.13;;;;;;;34.42;31.54;99971.91;5076669;28;20048;-81
2021/06/22 05:35:26;;;;;;;19.40;4.40;;;;;;;36.28;29.08;99975.31;5076904;28;20495;-81
2021/06/22 05:38:30;;;;;;;15.07;3.40;;;;;;;37.72;27.59;99968.41;5057217;28;20488;-79
2021/06/22 05:41:35;;;;;;;12.70;3.75;;;;;;;38.62;25.65;99978.88;5056172;28;20480;-80
2021/06/22 05:44:39;;;;;;;15.40;3.35;;;;;;;39.60;25.10;99976.22;5056811;28;20056;-82
2021/06/22 05:47:44;;;;;;;12.52;3.40;;;;;;;40.66;23.71;99980.63;5057116;28;20052;-82
2021/06/22 05:50:48;;;;;;;16.23;3.28;;;;;;;41.03;23.61;99984.47;5056790;28;20060;-82
2021/06/22 05:53:53;;;;;;;17.95;3.92;;;;;;;42.05;22.77;99996.59;5067155;28;20051;-82
2021/06/22 05:56:57;;;;;;;16.45;4.55;;;;;;;43.13;21.85;99989.16;5076280;28;20059;-81
2021/06/22 06:00:03;;;;;;;20.45;4.40;;;;;;;43.34;21.60;99992.59;5073826;28;20051;-82
2021/06/22 06:03:17;;;;;;;13.50;3.58;;;;;;;43.95;21.35;99993.06;5070254;28;20051;-82
2021/06/22 06:06:22;;;;;;;14.82;3.72;;;;;;;42.59;22.36;100000.81;5075670;28;20051;-83
2021/06/22 06:09:26;;;;;;;17.90;3.90;;;;;;;43.32;21.88;99997.78;5076427;28;20055;-83
2021/06/22 06:12:31;;;;;;;17.48;3.60;;;;;;;44.75;20.08;99993.38;5076063;28;20055;-83
2021/06/22 06:15:36;;;;;;;12.02;3.50;;;;;;;45.90;19.12;100003.81;5076406;28;20403;-82
2021/06/22 06:18:41;;;;;;;18.40;4.47;;;;;;;46.17;18.89;100000.66;5076258;28;20048;-83
2021/06/22 06:21:46;;;;;;;14.25;3.85;;;;;;;46.07;18.50;100004.13;5076250;28;20047;-82
2021/06/22 06:24:53;;;;;;;20.88;4.05;;;;;;;46.97;17.73;100007.94;5075046;28;20060;-82
2021/06/22 06:28:04;;;;;;;14.40;3.58;;;;;;;47.89;17.54;100006.16;5076005;28;20499;-84
2021/06/22 06:31:08;;;;;;;14.23;3.30;;;;;;;49.25;17.03;100016.06;5060466;28;20059;-82
2021/06/22 06:34:12;;;;;;;17.15;3.42;;;;;;;48.81;17.11;100019.91;5040911;28;20047;-82
2021/06/22 06:37:17;;;;;;;39.25;4.38;;;;;;;46.35;18.58;100018.81;5035186;28;20427;-82
2021/06/22 06:40:21;;;;;;;20.90;4.15;;;;;;;47.19;17.56;100014.72;5038723;28;20064;-83
2021/06/22 06:43:27;;;;;;;13.85;3.25;;;;;;;48.06;16.97;100009.16;5054696;28;20052;-83
2021/06/22 06:46:31;;;;;;;12.27;3.60;;;;;;;47.10;17.11;100019.91;5054407;28;20399;-82
2021/06/22 06:49:36;;;;;;;17.65;3.45;;;;;;;46.66;17.67;100014.81;5054491;28;20530;-83
2021/06/22 06:52:40;;;;;;;15.45;3.38;;;;;;;47.39;17.17;100008.47;5052151;28;20055;-79
2021/06/22 06:55:47;;;;;;;14.18;3.22;;;;;;;48.91;16.24;100022.00;5043989;28;20063;-83
2021/06/22 06:58:51;;;;;;;18.73;4.35;;;;;;;49.47;16.02;100012.84;5034390;28;20041;-82
2021/06/22 07:01:56;;;;;;;10.85;3.00;;;;;;;48.01;16.74;100005.84;5034203;28;20056;-82
2021/06/22 07:05:00;;;;;;;18.77;3.38;;;;;;;48.03;16.86;100001.41;5034549;28;20049;-82
2021/06/22 07:08:05;;;;;;;11.30;3.65;;;;;;;46.90;18.03;100013.53;5033083;28;20508;-82
2021/06/22 07:11:10;;;;;;;13.07;3.80;;;;;;;48.86;16.45;100011.00;5034261;28;20053;-83
2021/06/22 07:14:14;;;;;;;13.25;3.30;;;;;;;48.97;16.57;100001.66;5056094;28;20064;-82
2021/06/22 07:17:19;;;;;;;11.07;3.58;;;;;;;47.88;16.70;100002.50;5034032;28;20400;-82
2021/06/22 07:20:23;;;;;;;16.92;3.72;;;;;;;49.45;16.09;100012.44;5033378;28;20500;-82
2021/06/22 07:23:28;;;;;;;17.42;4.03;;;;;;;48.49;16.59;100004.63;5034215;28;20052;-82
2021/06/22 07:26:36;;;;;;;10.90;3.17;;;;;;;47.32;17.32;100007.56;5033987;28;20060;-82
2021/06/22 07:29:40;;;;;;;14.52;4.35;;;;;;;49.25;16.14;100018.91;5033733;28;20068;-82
2021/06/22 07:32:44;;;;;;;19.67;4.43;;;;;;;49.68;15.72;100008.44;5051002;28;20075;-82
2021/06/22 07:35:49;;;;;;;13.73;3.55;;;;;;;48.95;16.21;100013.47;5073565;28;20399;-81
2021/06/22 07:38:54;;;;;;;13.63;3.35;;;;;;;48.40;16.48;100000.50;5072361;28;20404;-83
2021/06/22 07:41:59;;;;;;;9.18;3.45;;;;;;;50.28;15.09;100005.63;5073417;28;20056;-81
2021/06/22 07:45:06;;;;;;;8.48;3.10;;;;;;;51.63;14.13;100016.19;5070421;28;20502;-83
2021/06/22 07:48:11;;;;;;;13.00;3.33;;;;;;;51.69;14.29;100014.50;5053189;28;20056;-82
2021/06/22 07:51:16;;;;;;;14.27;3.60;;;;;;;50.18;15.30;100015.81;5053483;28;20107;-83
2021/06/22 07:54:20;;;;;;;13.52;3.30;;;;;;;50.33;15.31;100020.31;5053565;28;20427;-81
2021/06/22 07:57:25;;;;;;;20.75;4.47;;;;;;;50.09;15.01;100016.22;5053274;28;20048;-82
2021/06/22 08:00:42;;;;;;;11.82;3.17;;;;;;;49.31;16.12;100015.25;5053455;28;20052;-82
2021/06/22 08:03:46;;;;;;;18.00;3.85;;;;;;;49.62;15.89;100016.59;5053215;28;20510;-82
2021/06/22 08:06:53;;;;;;;16.02;3.50;;;;;;;51.69;14.60;100013.69;5052614;28;20052;-82
2021/06/22 08:09:57;;;;;;;13.32;2.90;;;;;;;50.59;15.16;100016.22;5053001;28;20040;-82
2021/06/22 08:13:02;;;;;;;18.33;3.60;;;;;;;47.01;16.96;100017.34;5053214;28;20044;-81
2021/06/22 08:16:07;;;;;;;22.92;3.92;;;;;;;44.22;19.26;100020.44;5052826;28;20112;-82
2021/06/22 08:19:12;;;;;;;16.73;4.18;;;;;;;41.73;21.85;100020.09;5053113;28;20071;-81
2021/06/22 08:22:17;;;;;;;11.38;3.55;;;;;;;40.24;23.16;100016.31;5053400;28;20392;-79
2021/06/22 08:25:23;;;;;;;17.85;2.58;;;;;;;38.32;25.64;100013.53;5058432;28;20386;-80
2021/06/22 08:28:28;;;;;;;11.70;2.70;;;;;;;37.78;25.98;100015.56;5073620;28;20119;-80
2021/06/22 08:31:32;;;;;;;14.15;2.80;;;;;;;36.32;26.86;100016.31;5072965;28;20055;-79
2021/06/22 08:34:36;;;;;;;14.88;3.20;;;;;;;35.76;27.81;100018.56;5073384;28;20051;-81
2021/06/22 08:37:41;;;;;;;11.65;3.08;;;;;;;35.86;28.12;100018.38;5072929;28;20063;-81
2021/06/22 08:40:47;;;;;;;15.50;3.20;;;;;;;34.96;29.15;100021.59;5073079;28;20051;-81
2021/06/22 08:43:51;;;;;;;15.82;2.85;;;;;;;34.64;30.20;100013.19;5072627;28;20426;-81
2021/06/22 08:47:00;;;;;;;10.98;2.78;;;;;;;34.14;30.11;100011.03;5072875;28;20056;-80
2021/06/22 08:50:07;;;;;;;13.80;2.75;;;;;;;33.96;30.22;100021.81;5075833;28;20395;-81
2021/06/22 08:53:14;;;;;;;15.77;2.90;;;;;;;33.54;30.53;100023.63;5076219;28;20499;-81
2021/06/22 08:56:18;;;;;;;14.02;3.20;;;;;;;33.60;31.08;100025.28;5076337;28;20051;-81
2021/06/22 08:59:22;;;;;;;12.38;2.70;;;;;;;33.89;30.60;100007.41;5076896;28;20051;-81
2021/06/22 09:02:30;;;;;;;15.73;3.35;;;;;;;33.97;30.47;100003.94;5076921;28;20051;-81
2021/06/22 09:05:34;;;;;;;18.33;2.83;;;;;;;33.62;30.81;100023.84;5075690;28;20044;-79
2021/06/22 09:08:39;;;;;;;11.73;2.53;;;;;;;33.63;30.81;100014.38;5076732;28;20055;-81
2021/06/22 09:12:06;;;;;;;9.70;2.42;;;;;;;33.90;29.97;100003.47;5076435;28;20514;-80
2021/06/22 09:15:26;;;;;;;14.23;2.47;;;;;;;33.69;29.57;100012.34;5076489;28;20051;-80
2021/06/22 09:18:37;;;;;;;12.70;2.92;;;;;;;32.94;31.46;100011.88;5076455;28;20040;-80
2021/06/22 09:21:46;;;;;;;12.25;2.80;;;;;;;32.80;31.74;100016.44;5076358;28;20048;-80
2021/06/22 09:25:09;;;;;;;18.02;2.75;;;;;;;32.53;31.54;100005.75;5076436;28;20047;-81
2021/06/22 09:28:16;;;;;;;13.70;2.72;;;;;;;32.46;32.34;100008.00;5074903;28;20044;-81
2021/06/22 09:31:23;;;;;;;9.43;2.60;;;;;;;32.46;31.84;100013.56;5075384;28;20067;-81
2021/06/22 09:34:29;;;;;;;13.40;2.63;;;;;;;32.68;31.69;100015.97;5076270;28;20044;-82
2021/06/22 09:38:03;;;;;;;15.95;2.80;;;;;;;32.90;31.36;100023.88;5075966;28;20055;-82
2021/06/22 09:41:11;;;;;;;10.38;2.42;;;;;;;32.79;31.75;100009.19;5062407;28;20119;-82
2021/06/22 09:44:17;;;;;;;12.55;2.83;;;;;;;32.89;31.94;100013.88;5073926;28;20581;-82
2021/06/22 09:47:30;;;;;;;13.68;3.20;;;;;;;32.86;31.79;100014.44;5073823;28;20151;-82
2021/06/22 09:50:54;;;;;;;8.82;2.30;;;;;;;32.54;32.64;100012.16;5073772;28;20047;-81
2021/06/22 09:54:11;;;;;;;7.70;2.58;;;;;;;32.51;32.27;100009.94;5073292;28;20048;-81
2021/06/22 09:57:21;;;;;;;10.23;2.42;;;;;;;32.93;32.04;100010.22;5073623;28;20059;-81
2021/06/22 10:00:37;;;;;;;15.40;2.78;;;;;;;32.96;31.64;100008.81;5073188;28;20056;-81
2021/06/22 10:03:42;;;;;;;10.00;2.22;;;;;;;32.89;32.28;100006.34;5055581;28;20162;-81
2021/06/22 10:06:55;;;;;;;11.68;2.42;;;;;;;33.14;32.50;100010.91;5066356;28;20141;-82
2021/06/22 10:10:03;;;;;;;18.05;2.83;;;;;;;32.53;32.43;100000.19;5054888;28;20044;-81
2021/06/22 10:13:08;;;;;;;20.30;3.17;;;;;;;32.54;32.94;100003.81;5073447;28;20055;-81
2021/06/22 10:16:21;;;;;;;16.10;3.25;;;;;;;32.61;32.69;100002.38;5073169;28;20106;-81
2021/06/22 10:19:26;;;;;;;11.68;2.33;;;;;;;32.77;32.75;100006.72;5075397;28;20059;-81
2021/06/22 10:22:33;;;;;;;8.00;2.78;;;;;;;32.81;32.38;99997.78;5075289;28;20051;-81
2021/06/22 10:25:38;;;;;;;10.27;2.85;;;;;;;32.58;32.54;99991.00;5075190;28;20051;-81
2021/06/22 10:28:45;;;;;;;10.95;2.40;;;;;;;32.52;32.81;99984.63;5075766;28;20505;-81
2021/06/22 10:31:52;;;;;;;12.68;2.75;;;;;;;32.60;32.37;99999.88;5074957;28;20052;-81
2021/06/22 10:35:00;;;;;;;12.13;2.50;;;;;;;32.65;32.59;99992.34;5075168;28;20051;-81
2021/06/22 10:38:09;;;;;;;11.02;2.58;;;;;;;32.69;32.38;99990.63;5074614;28;20055;-80
2021/06/22 10:41:14;;;;;;;9.90;2.92;;;;;;;32.60;32.48;99991.53;5073789;28;20502;-81
2021/06/22 10:44:24;;;;;;;12.07;2.42;;;;;;;32.65;31.70;99991.50;5075086;28;20048;-80
2021/06/22 10:47:34;;;;;;;11.75;2.67;;;;;;;32.82;32.20;99988.31;5074636;28;20052;-81
2021/06/22 10:50:38;;;;;;;10.18;2.17;;;;;;;32.74;32.65;99987.81;5074036;28;20052;-80
2021/06/22 10:53:43;;;;;;;12.90;2.85;;;;;;;32.65;32.06;99981.22;5074625;28;20063;-81
2021/06/22 10:56:50;;;;;;;12.38;2.88;;;;;;;32.40;32.72;99975.78;5074863;28;20052;-80
2021/06/22 11:00:03;;;;;;;13.85;2.75;;;;;;;32.49;33.05;99987.94;5074244;28;20055;-80
2021/06/22 11:03:19;;;;;;;15.15;3.25;;;;;;;32.31;32.67;99980.28;5073825;28;20047;-79
2021/06/22 11:06:24;;;;;;;10.40;2.35;;;;;;;32.40;33.12;99977.72;5073595;28;20051;-81
2021/06/22 11:09:30;;;;;;;14.63;2.83;;;;;;;32.38;32.25;99978.03;5068481;28;20052;-80
2021/06/22 11:12:45;;;;;;;11.00;3.00;;;;;;;32.39;32.06;99971.38;5067966;28;20048;-79
2021/06/22 11:15:55;;;;;;;7.93;2.83;;;;;;;32.46;33.10;99977.44;5074046;28;20052;-79
2021/06/22 11:19:11;;;;;;;10.00;2.42;;;;;;;32.29;32.89;99981.69;5074082;28;20060;-79
2021/06/22 11:22:15;;;;;;;7.50;2.28;;;;;;;32.16;33.11;99960.91;5067734;28;20051;-80
2021/06/22 11:25:22;;;;;;;12.88;2.45;;;;;;;32.12;33.23;99962.63;5068998;28;20059;-80
2021/06/22 11:28:28;;;;;;;8.48;2.03;;;;;;;32.29;33.03;99965.84;5073940;28;20059;-80
2021/06/22 11:31:40;;;;;;;9.75;2.30;;;;;;;32.45;32.39;99964.63;5072439;28;20502;-79
2021/06/22 11:34:56;;;;;;;8.90;2.28;;;;;;;32.55;32.63;99964.59;5072475;28;20051;-79
2021/06/22 11:38:13;;;;;;;9.18;2.38;;;;;;;32.54;32.42;99964.91;5072821;28;20055;-79
2021/06/22 11:41:19;;;;;;;12.48;2.47;;;;;;;32.44;32.67;99959.38;5072996;28;20127;-80
2021/06/22 11:44:37;;;;;;;7.82;2.25;;;;;;;32.33;32.56;99955.00;5071444;28;20047;-79
2021/06/22 11:47:47;;;;;;;10.85;2.50;;;;;;;32.50;32.66;99961.00;5073532;28;20047;-79
2021/06/22 11:50:52;;;;;;;10.88;2.47;;;;;;;32.63;33.67;99954.81;5072478;28;20419;-78
2021/06/22 11:53:56;;;;;;;9.52;2.20;;;;;;;32.71;32.51;99952.25;5063596;28;20499;-79
2021/06/22 11:57:01;;;;;;;14.77;3.05;;;;;;;32.78;32.89;99952.78;5053274;28;20052;-79
2021/06/22 12:00:17;;;;;;;10.38;2.40;;;;;;;32.65;32.60;99947.84;5065466;28;20052;-80
2021/06/22 12:03:24;;;;;;;10.85;2.22;;;;;;;32.83;32.23;99951.91;5053199;28;20048;-79
2021/06/22 12:06:29;;;;;;;8.98;2.17;;;;;;;32.95;31.80;99952.34;5068955;28;20051;-79
2021/06/22 12:09:36;;;;;;;13.40;2.05;;;;;;;33.03;31.65;99954.53;5067322;28;20525;-80
2021/06/22 12:12:44;;;;;;;13.10;2.33;;;;;;;33.16;32.04;99947.47;5072135;28;20051;-79
2021/06/22 12:15:48;;;;;;;8.10;2.35;;;;;;;33.39;31.80;99947.50;5073265;28;20047;-79
2021/06/22 12:18:58;;;;;;;6.15;2.00;;;;;;;33.41;31.37;99944.41;5072373;28;20059;-79
2021/06/22 12:22:04;;;;;;;15.07;2.50;;;;;;;33.56;31.25;99949.00;5073114;28;20059;-79
2021/06/22 12:25:08;;;;;;;5.38;1.50;;;;;;;33.75;30.75;99945.16;5068753;28;20051;-79
2021/06/22 12:28:13;;;;;;;5.50;2.13;;;;;;;33.71;31.29;99944.09;5073355;28;20060;-80
2021/06/22 12:31:18;;;;;;;7.07;1.65;;;;;;;33.51;29.96;99941.53;5072702;28;20055;-79
2021/06/22 12:34:29;;;;;;;9.63;2.20;;;;;;;33.67;30.42;99939.44;5073111;28;20074;-78
2021/06/22 12:37:33;;;;;;;6.97;2.35;;;;;;;33.72;30.36;99940.22;5051960;28;20055;-78
2021/06/22 12:40:39;;;;;;;11.10;2.00;;;;;;;33.63;31.21;99939.19;5064892;28;20047;-79
2021/06/22 12:43:49;;;;;;;4.50;1.50;;;;;;;33.50;29.91;99933.47;5073130;28;20107;-79
2021/06/22 12:46:53;;;;;;;10.15;2.30;;;;;;;33.48;30.49;99936.53;5052814;28;20048;-78
2021/06/22 12:49:58;;;;;;;10.50;2.47;;;;;;;33.52;30.55;99932.06;5059099;28;20403;-79
2021/06/22 12:53:03;;;;;;;10.45;1.95;;;;;;;33.54;30.68;99931.75;5072750;28;20051;-79
2021/06/22 12:56:11;;;;;;;12.98;1.83;;;;;;;33.62;29.08;99931.97;5072957;28;20051;-79
2021/06/22 12:59:20;;;;;;;6.72;1.77;;;;;;;33.66;29.95;99932.19;5071659;28;20051;-79
2021/06/22 13:02:25;;;;;;;4.45;1.60;;;;;;;33.67;29.45;99931.91;5072835;28;20039;-78
2021/06/22 13:05:35;;;;;;;7.32;1.70;;;;;;;33.57;29.68;99926.47;5072377;28;20507;-78
2021/06/22 13:08:40;;;;;;;11.40;2.03;;;;;;;33.55;30.90;99928.72;5071645;28;20071;-78
2021/06/22 13:12:01;;;;;;;7.03;1.85;;;;;;;33.72;29.36;99922.66;5065301;28;20040;-78
2021/06/22 13:15:07;;;;;;;5.87;1.60;;;;;;;33.84;29.23;99920.28;5051797;28;20048;-79
2021/06/22 13:18:11;;;;;;;4.55;1.42;;;;;;;34.00;28.63;99919.78;5051622;28;20056;-78
2021/06/22 13:21:16;;;;;;;6.70;1.88;;;;;;;33.96;28.90;99929.03;5039913;28;20076;-78
2021/06/22 13:24:29;;;;;;;8.25;1.98;;;;;;;34.03;29.02;99924.75;5040359;28;20063;-79
2021/06/22 13:27:37;;;;;;;9.15;1.73;;;;;;;34.09;29.02;99927.50;5056248;28;20039;-78
2021/06/22 13:30:47;;;;;;;11.15;1.88;;;;;;;34.15;28.83;99915.19;5059914;28;20051;-78
2021/06/22 13:34:11;;;;;;;4.93;1.52;;;;;;;34.14;28.36;99919.09;5039816;28;20048;-79
2021/06/22 13:37:15;;;;;;;6.25;1.77;;;;;;;34.11;28.88;99920.50;5042777;28;20499;-79
2021/06/22 13:40:20;;;;;;;11.57;1.85;;;;;;;34.17;28.36;99915.69;5043823;28;20064;-79
2021/06/22 13:43:27;;;;;;;6.53;1.40;;;;;;;33.98;27.76;99915.63;5052026;28;20507;-78
2021/06/22 13:46:37;;;;;;;5.80;1.33;;;;;;;33.86;32.45;99918.03;5074606;28;20400;-78
2021/06/22 13:49:43;;;;;;;4.75;1.45;;;;;;;33.75;31.11;99917.31;5052345;28;20040;-78
2021/06/22 13:52:53;;;;;;;5.03;1.67;;;;;;;33.89;28.88;99912.69;5051542;28;20520;-79
2021/06/22 13:55:59;;;;;;;9.38;1.90;;;;;;;34.02;28.76;99920.31;5051712;28;20048;-78
2021/06/22 13:59:04;;;;;;;5.22;1.77;;;;;;;33.97;29.14;99914.81;5052324;28;20047;-79
2021/06/22 14:02:09;;;;;;;6.68;1.83;;;;;;;33.92;28.39;99912.06;5052399;28;20048;-79
2021/06/22 14:05:13;;;;;;;5.60;1.50;;;;;;;33.78;28.70;99918.69;5051595;28;20395;-78
2021/06/22 14:08:18;;;;;;;7.10;1.80;;;;;;;33.53;30.13;99918.97;5051771;28;20055;-79
2021/06/22 14:11:23;;;;;;;6.28;1.80;;;;;;;33.63;30.46;99916.91;5051450;28;20498;-78
2021/06/22 14:14:28;;;;;;;7.72;2.20;;;;;;;33.77;30.37;99919.81;5063323;28;20055;-78
2021/06/22 14:17:32;;;;;;;7.07;1.73;;;;;;;33.76;29.39;99910.63;5051401;28;20059;-79
2021/06/22 14:20:38;;;;;;;7.57;1.73;;;;;;;33.66;29.72;99910.75;5051680;28;20071;-77
2021/06/22 14:23:42;;;;;;;10.93;1.88;;;;;;;33.54;29.17;99907.56;5051680;28;20051;-78
2021/06/22 14:26:47;;;;;;;5.57;1.45;;;;;;;33.51;29.57;99910.06;5051365;28;20055;-78
2021/06/22 14:29:51;;;;;;;9.13;2.17;;;;;;;33.49;30.01;99906.75;5042158;28;20044;-79